createdAt,value
2019-06-20T00:00:51.252Z,8.33
2019-06-20T00:03:20.579Z,12.55
2019-06-20T00:05:49.937Z,9.55
2019-06-20T00:08:19.293Z,9.33
2019-06-20T00:10:48.625Z,11.35
2019-06-20T00:13:18.185Z,7.53
2019-06-20T00:15:47.520Z,9.85
2019-06-20T00:18:16.877Z,9.08
2019-06-20T00:20:46.205Z,5.85
2019-06-20T00:23:15.528Z,7.72
2019-06-20T00:25:44.874Z,8.78
2019-06-20T00:28:14.202Z,11.95
2019-06-20T00:30:43.550Z,12.40
2019-06-20T00:33:12.886Z,8.73
2019-06-20T00:35:42.248Z,6.08
2019-06-20T00:38:11.586Z,6.42
2019-06-20T00:40:41.165Z,9.05
2019-06-20T00:43:17.677Z,7.30
2019-06-20T00:45:42.511Z,8.60
2019-06-20T00:48:12.073Z,5.47
2019-06-20T00:50:41.408Z,8.50
2019-06-20T00:53:10.740Z,6.72
2019-06-20T00:55:40.302Z,9.75
2019-06-20T00:58:09.907Z,5.62
2019-06-20T01:00:39.291Z,7.78
2019-06-20T01:03:08.628Z,6.40
2019-06-20T01:05:38.035Z,8.93
2019-06-20T01:08:07.378Z,7.35
2019-06-20T01:10:36.721Z,9.33
2019-06-20T01:13:06.327Z,8.75
2019-06-20T01:15:35.662Z,5.70
2019-06-20T01:18:05.238Z,8.73
2019-06-20T01:20:34.570Z,6.58
2019-06-20T01:23:03.904Z,12.93
2019-06-20T01:25:38.400Z,7.05
2019-06-20T01:28:07.762Z,6.92
2019-06-20T01:30:37.110Z,8.65
2019-06-20T01:33:06.773Z,9.80
2019-06-20T01:35:36.204Z,7.65
2019-06-20T01:38:06.562Z,9.18
2019-06-20T01:40:35.938Z,8.23
2019-06-20T01:43:05.448Z,11.10
2019-06-20T01:45:34.776Z,11.93
2019-06-20T01:48:04.413Z,9.83
2019-06-20T01:50:33.738Z,12.98
2019-06-20T01:53:03.325Z,22.15
2019-06-20T01:55:32.658Z,14.00
2019-06-20T01:58:05.448Z,18.07
2019-06-20T02:00:44.055Z,19.05
2019-06-20T02:03:14.478Z,21.70
2019-06-20T02:05:43.897Z,20.45
2019-06-20T02:08:13.471Z,18.95
2019-06-20T02:10:42.812Z,22.00
2019-06-20T02:13:12.166Z,21.77
2019-06-20T02:15:41.609Z,18.02
2019-06-20T02:18:10.947Z,21.70
2019-06-20T02:20:53.486Z,24.25
2019-06-20T02:23:23.384Z,28.15
2019-06-20T02:25:53.788Z,26.80
2019-06-20T02:28:23.865Z,28.52
2019-06-20T02:30:53.260Z,23.67
2019-06-20T02:33:22.713Z,24.90
2019-06-20T02:35:52.270Z,27.22
2019-06-20T02:38:21.626Z,26.05
2019-06-20T02:40:51.239Z,29.02
2019-06-20T02:43:20.574Z,27.20
2019-06-20T02:45:49.913Z,31.73
2019-06-20T02:48:19.266Z,30.37
2019-06-20T02:50:48.711Z,30.23
2019-06-20T02:53:18.061Z,33.65
2019-06-20T02:55:47.696Z,35.13
2019-06-20T02:58:17.301Z,33.38
2019-06-20T03:00:55.824Z,35.23
2019-06-20T03:03:26.131Z,36.33
2019-06-20T03:05:56.335Z,37.63
2019-06-20T03:08:25.884Z,36.23
2019-06-20T03:10:55.462Z,35.88
2019-06-20T03:13:24.811Z,39.20
2019-06-20T03:15:54.142Z,36.42
2019-06-20T03:18:23.479Z,37.42
2019-06-20T03:20:52.923Z,40.23
2019-06-20T03:23:22.279Z,44.40
2019-06-20T03:25:51.613Z,45.67
2019-06-20T03:28:21.198Z,43.40
2019-06-20T03:30:50.579Z,43.63
2019-06-20T03:33:19.932Z,45.28
2019-06-20T03:35:49.267Z,43.83
2019-06-20T03:38:18.608Z,40.45
2019-06-20T03:40:47.952Z,39.30
2019-06-20T03:43:17.628Z,46.42
2019-06-20T03:45:47.105Z,39.58
2019-06-20T03:48:16.951Z,38.73
2019-06-20T03:50:46.381Z,41.98
2019-06-20T03:53:15.777Z,38.30
2019-06-20T03:55:45.143Z,40.80
2019-06-20T03:58:14.523Z,38.13
2019-06-20T04:00:43.964Z,37.78
2019-06-20T04:03:13.562Z,41.20
2019-06-20T04:05:43.195Z,36.63
2019-06-20T04:08:12.629Z,42.05
2019-06-20T04:10:41.997Z,43.65
2019-06-20T04:13:11.608Z,39.10
2019-06-20T04:15:40.944Z,46.23
2019-06-20T04:18:10.295Z,41.53
2019-06-20T04:20:39.738Z,41.30
2019-06-20T04:23:09.100Z,45.20
2019-06-20T04:25:38.446Z,43.50
2019-06-20T04:28:07.819Z,40.90
2019-06-20T04:30:37.162Z,45.75
2019-06-20T04:33:06.812Z,43.55
2019-06-20T04:35:36.534Z,48.38
2019-06-20T04:38:05.993Z,43.20
2019-06-20T04:40:35.350Z,42.78
2019-06-20T04:43:04.964Z,46.25
2019-06-20T04:45:52.394Z,40.80
2019-06-20T04:48:21.740Z,43.78
2019-06-20T04:50:51.383Z,43.45
2019-06-20T04:53:20.951Z,41.28
2019-06-20T04:55:50.294Z,42.05
2019-06-20T04:58:19.868Z,40.85
2019-06-20T05:00:49.444Z,42.85
2019-06-20T05:03:18.786Z,45.10
2019-06-20T05:05:49.112Z,47.43
2019-06-20T05:08:18.463Z,47.55
2019-06-20T05:10:47.811Z,41.35
2019-06-20T05:13:17.151Z,40.83
2019-06-20T05:15:52.557Z,45.55
2019-06-20T05:18:17.598Z,41.08
2019-06-20T05:20:46.940Z,40.78
2019-06-20T05:23:16.286Z,41.28
2019-06-20T05:25:45.634Z,41.50
2019-06-20T05:28:15.303Z,39.33
2019-06-20T05:30:45.325Z,39.80
2019-06-20T05:33:14.968Z,42.27
2019-06-20T05:35:44.645Z,37.85
2019-06-20T05:38:13.985Z,42.67
2019-06-20T05:40:43.341Z,39.85
2019-06-20T05:43:12.722Z,41.37
2019-06-20T05:45:46.161Z,45.60
2019-06-20T05:48:13.267Z,45.85
2019-06-20T05:50:42.620Z,43.35
2019-06-20T05:53:12.036Z,38.53
2019-06-20T05:55:41.451Z,40.92
2019-06-20T05:58:10.818Z,39.23
2019-06-20T06:00:40.272Z,40.10
2019-06-20T06:03:09.644Z,39.63
2019-06-20T06:05:39.438Z,41.90
2019-06-20T06:08:08.786Z,38.98
2019-06-20T06:10:38.133Z,42.48
2019-06-20T06:13:07.474Z,40.90
2019-06-20T06:15:36.826Z,41.05
2019-06-20T06:18:06.386Z,42.88
2019-06-20T06:20:35.744Z,45.28
2019-06-20T06:23:05.080Z,39.03
2019-06-20T06:25:34.660Z,37.35
2019-06-20T06:28:04.033Z,36.58
2019-06-20T06:30:33.652Z,37.83
2019-06-20T06:33:03.262Z,33.60
2019-06-20T06:35:32.613Z,37.67
2019-06-20T06:38:01.962Z,34.50
2019-06-20T06:40:31.380Z,32.10
2019-06-20T06:43:00.730Z,29.95
2019-06-20T06:45:30.092Z,28.30
2019-06-20T06:47:59.428Z,26.27
2019-06-20T06:50:28.922Z,29.75
2019-06-20T06:52:58.264Z,25.57
2019-06-20T06:55:28.051Z,28.52
2019-06-20T06:57:57.327Z,25.82
2019-06-20T07:00:26.890Z,25.77
2019-06-20T07:02:56.239Z,26.30
2019-06-20T07:05:25.581Z,23.75
2019-06-20T07:07:55.170Z,25.80
2019-06-20T07:10:24.850Z,28.73
2019-06-20T07:12:54.420Z,22.40
2019-06-20T07:15:24.968Z,24.07
2019-06-20T07:17:54.679Z,26.45
2019-06-20T07:20:24.330Z,25.62
2019-06-20T07:22:54.036Z,29.92
2019-06-20T07:25:23.383Z,23.80
2019-06-20T07:27:52.746Z,23.65
2019-06-20T07:30:22.559Z,27.22
2019-06-20T07:32:51.912Z,22.35
2019-06-20T07:35:21.520Z,24.02
2019-06-20T07:37:51.153Z,26.77
2019-06-20T07:40:20.743Z,24.52
2019-06-20T07:42:50.100Z,20.50
2019-06-20T07:45:22.500Z,19.25
2019-06-20T07:47:51.828Z,22.65
2019-06-20T07:50:21.178Z,22.95
2019-06-20T07:53:01.507Z,23.95
2019-06-20T07:55:21.804Z,25.17
2019-06-20T07:57:51.170Z,22.02
2019-06-20T08:00:20.776Z,22.87
2019-06-20T08:02:50.157Z,23.50
2019-06-20T08:05:19.841Z,22.10
2019-06-20T08:07:49.216Z,23.80
2019-06-20T08:10:19.166Z,23.50
2019-06-20T08:12:48.508Z,20.57
2019-06-20T08:15:19.716Z,26.45
2019-06-20T08:17:49.298Z,27.62
2019-06-20T08:20:18.935Z,20.35
2019-06-20T08:22:48.560Z,25.00
2019-06-20T08:25:18.334Z,24.45
2019-06-20T08:27:50.893Z,23.20
2019-06-20T08:30:31.433Z,22.27
2019-06-20T08:33:03.526Z,23.35
2019-06-20T08:35:33.060Z,22.52
2019-06-20T08:38:03.492Z,22.65
2019-06-20T08:40:39.943Z,23.87
2019-06-20T08:43:09.426Z,29.50
2019-06-20T08:45:40.017Z,23.77
2019-06-20T08:48:09.463Z,26.00
2019-06-20T08:50:39.451Z,23.95
2019-06-20T08:53:09.431Z,24.45
2019-06-20T08:55:38.993Z,22.98
2019-06-20T08:58:08.361Z,19.27
2019-06-20T09:00:38.418Z,19.30
2019-06-20T09:03:08.134Z,21.15
2019-06-20T09:05:37.542Z,23.02
2019-06-20T09:08:11.144Z,17.32
2019-06-20T09:10:40.378Z,16.70
2019-06-20T09:13:12.186Z,19.73
2019-06-20T09:15:43.280Z,18.67
2019-06-20T09:18:13.052Z,17.05
2019-06-20T09:20:42.422Z,15.78
2019-06-20T09:23:12.093Z,14.50
2019-06-20T09:25:41.797Z,14.38
2019-06-20T09:28:11.113Z,13.68
2019-06-20T09:30:40.550Z,15.93
2019-06-20T09:33:10.159Z,14.80
2019-06-20T09:35:39.492Z,16.48
2019-06-20T09:38:08.824Z,15.43
2019-06-20T09:40:38.431Z,11.25
2019-06-20T09:43:08.765Z,9.83
2019-06-20T09:45:38.350Z,10.63
2019-06-20T09:48:07.764Z,13.00
2019-06-20T09:50:37.497Z,11.10
2019-06-20T09:53:06.840Z,11.68
2019-06-20T09:55:36.230Z,11.03
2019-06-20T09:58:05.805Z,7.40
2019-06-20T10:00:35.620Z,9.70
2019-06-20T10:03:05.378Z,11.88
2019-06-20T10:05:35.500Z,10.70
2019-06-20T10:08:04.973Z,12.93
2019-06-20T10:10:35.154Z,10.13
2019-06-20T10:15:41.150Z,9.60
2019-06-20T10:18:10.734Z,11.10
2019-06-20T10:20:40.378Z,9.68
2019-06-20T10:23:09.710Z,12.75
2019-06-20T10:25:39.233Z,10.53
2019-06-20T10:28:09.140Z,11.90
2019-06-20T10:30:38.484Z,12.40
2019-06-20T10:33:08.056Z,11.50
2019-06-20T10:35:37.416Z,13.70
2019-06-20T10:38:06.995Z,10.75
2019-06-20T10:40:36.334Z,13.28
2019-06-20T10:43:05.840Z,12.47
2019-06-20T10:45:36.329Z,14.03
2019-06-20T10:48:06.201Z,12.85
2019-06-20T10:50:35.690Z,12.00
2019-06-20T10:53:05.457Z,13.03
2019-06-20T10:55:34.898Z,10.10
2019-06-20T10:58:04.306Z,10.63
2019-06-20T11:00:33.904Z,13.43
2019-06-20T11:03:03.563Z,15.18
2019-06-20T11:05:33.250Z,13.45
2019-06-20T11:08:02.603Z,15.00
2019-06-20T11:10:32.895Z,15.25
2019-06-20T11:13:02.468Z,13.72
2019-06-20T11:15:33.025Z,12.58
2019-06-20T11:18:02.539Z,15.70
2019-06-20T11:20:31.884Z,14.05
2019-06-20T11:23:01.224Z,14.43
2019-06-20T11:25:30.560Z,13.00
2019-06-20T11:27:59.996Z,15.93
2019-06-20T11:30:44.869Z,15.40
2019-06-20T11:33:02.046Z,14.85
2019-06-20T11:35:31.663Z,18.80
2019-06-20T11:38:01.006Z,16.50
2019-06-20T11:40:30.693Z,18.02
2019-06-20T11:43:00.070Z,17.25
2019-06-20T11:45:29.470Z,15.60
2019-06-20T11:47:59.090Z,10.65
2019-06-20T11:50:28.480Z,12.65
2019-06-20T11:52:58.073Z,16.27
2019-06-20T11:55:27.443Z,16.27
2019-06-20T11:57:56.786Z,14.68
2019-06-20T12:00:27.194Z,15.65
2019-06-20T12:02:56.771Z,17.73
2019-06-20T12:05:26.710Z,19.30
2019-06-20T12:07:56.101Z,16.45
2019-06-20T12:10:25.467Z,15.75
2019-06-20T12:12:55.788Z,15.83
2019-06-20T12:15:25.186Z,19.15
2019-06-20T12:17:54.548Z,16.12
2019-06-20T12:20:24.466Z,18.65
2019-06-20T12:22:53.797Z,12.73
2019-06-20T12:25:23.240Z,12.07
2019-06-20T12:27:53.535Z,9.28
2019-06-20T12:30:24.707Z,9.68
2019-06-20T12:32:54.063Z,13.28
2019-06-20T12:35:23.420Z,15.18
2019-06-20T12:37:52.763Z,12.60
2019-06-20T12:40:24.423Z,12.98
2019-06-20T12:42:54.743Z,12.73
2019-06-20T12:45:24.340Z,9.75
2019-06-20T12:47:53.645Z,11.25
2019-06-20T12:50:23.264Z,10.78
2019-06-20T12:52:52.608Z,10.15
2019-06-20T12:55:21.938Z,11.40
2019-06-20T12:57:51.286Z,10.35
2019-06-20T13:00:22.222Z,9.63
2019-06-20T13:02:51.557Z,8.33
2019-06-20T13:05:21.529Z,13.43
2019-06-20T13:07:50.866Z,11.05
2019-06-20T13:10:20.578Z,11.60
2019-06-20T13:12:49.905Z,9.75
2019-06-20T13:15:20.171Z,14.50
2019-06-20T13:17:49.827Z,11.88
2019-06-20T13:20:19.598Z,13.28
2019-06-20T13:22:49.557Z,10.63
2019-06-20T13:25:20.026Z,11.12
2019-06-20T13:27:50.621Z,9.98
2019-06-20T13:30:21.029Z,7.60
2019-06-20T13:32:50.389Z,9.13
2019-06-20T13:35:20.122Z,13.40
2019-06-20T13:37:49.886Z,9.95
2019-06-20T13:40:19.531Z,11.53
2019-06-20T13:42:50.285Z,11.43
2019-06-20T13:45:24.854Z,12.23
2019-06-20T13:47:54.546Z,11.43
2019-06-20T13:50:25.311Z,13.58
2019-06-20T13:52:55.056Z,9.45
2019-06-20T13:55:24.713Z,9.20
2019-06-20T13:57:54.143Z,11.08
2019-06-20T14:00:24.646Z,15.03
2019-06-20T14:02:54.226Z,11.88
2019-06-20T14:05:23.553Z,13.75
2019-06-20T14:07:55.419Z,12.65
2019-06-20T14:10:24.250Z,14.90
2019-06-20T14:12:53.585Z,15.28
2019-06-20T14:15:23.675Z,14.78
2019-06-20T14:17:53.832Z,16.50
2019-06-20T14:20:24.573Z,19.45
2019-06-20T14:22:54.570Z,17.95
2019-06-20T14:25:24.622Z,17.92
2019-06-20T14:27:54.006Z,18.20
2019-06-20T14:30:23.834Z,15.58
2019-06-20T14:32:53.973Z,15.40
2019-06-20T14:35:23.524Z,18.32
2019-06-20T14:37:53.235Z,16.32
2019-06-20T14:40:22.938Z,19.50
2019-06-20T14:42:52.524Z,17.25
2019-06-20T14:45:22.000Z,18.40
2019-06-20T14:47:52.526Z,18.90
2019-06-20T14:50:23.137Z,17.15
2019-06-20T14:52:54.096Z,18.27
2019-06-20T14:55:23.635Z,14.55
2019-06-20T14:57:54.463Z,21.20
2019-06-20T15:00:24.766Z,13.35
2019-06-20T15:02:57.841Z,17.98
2019-06-20T15:05:25.938Z,16.07
2019-06-20T15:07:55.926Z,18.30
2019-06-20T15:10:26.353Z,20.60
2019-06-20T15:12:56.159Z,18.20
2019-06-20T15:15:26.527Z,15.95
2019-06-20T15:17:58.050Z,14.28
2019-06-20T15:20:27.228Z,16.27
2019-06-20T15:22:56.868Z,12.30
2019-06-20T15:25:26.198Z,14.43
2019-06-20T15:27:57.310Z,13.80
2019-06-20T15:30:27.033Z,15.48
2019-06-20T15:33:07.485Z,11.30
2019-06-20T15:35:27.681Z,15.40
2019-06-20T15:37:57.811Z,13.85
2019-06-20T15:40:27.285Z,14.23
2019-06-20T15:42:57.316Z,13.32
2019-06-20T15:45:27.646Z,10.08
2019-06-20T15:47:56.984Z,10.60
2019-06-20T15:50:26.350Z,11.75
2019-06-20T15:52:56.801Z,11.30
2019-06-20T15:55:26.163Z,11.43
2019-06-20T15:57:56.481Z,9.80
2019-06-20T16:00:25.977Z,12.88
2019-06-20T16:03:08.832Z,9.80
2019-06-20T16:05:26.571Z,10.08
2019-06-20T16:07:55.936Z,11.30
2019-06-20T16:10:25.296Z,9.50
2019-06-20T16:12:54.636Z,9.55
2019-06-20T16:15:24.148Z,12.10
2019-06-20T16:17:53.557Z,11.53
2019-06-20T16:20:23.055Z,10.20
2019-06-20T16:22:52.409Z,11.73
2019-06-20T16:25:21.974Z,9.23
2019-06-20T16:27:51.692Z,16.95
2019-06-20T16:30:22.569Z,12.25
2019-06-20T16:32:51.899Z,11.38
2019-06-20T16:35:21.589Z,11.15
2019-06-20T16:37:51.056Z,12.35
2019-06-20T16:40:23.738Z,12.13
2019-06-20T16:42:54.513Z,11.90
2019-06-20T16:45:24.228Z,14.18
2019-06-20T16:47:53.577Z,14.60
2019-06-20T16:50:22.979Z,13.75
2019-06-20T16:52:52.614Z,14.45
2019-06-20T16:55:22.209Z,15.18
2019-06-20T16:57:51.574Z,13.68
2019-06-20T17:00:21.359Z,14.93
2019-06-20T17:02:50.942Z,14.73
2019-06-20T17:05:20.516Z,15.72
2019-06-20T17:07:49.889Z,14.68
2019-06-20T17:10:19.583Z,17.73
2019-06-20T17:12:48.913Z,16.00
2019-06-20T17:15:18.611Z,16.90
2019-06-20T17:17:47.943Z,15.20
2019-06-20T17:20:17.915Z,12.47
2019-06-20T17:22:48.212Z,17.12
2019-06-20T17:25:17.792Z,13.85
2019-06-20T17:27:47.362Z,15.50
2019-06-20T17:30:19.356Z,14.43
2019-06-20T17:32:48.935Z,13.85
2019-06-20T17:35:18.603Z,14.55
2019-06-20T17:37:48.232Z,12.15
2019-06-20T17:40:18.315Z,13.43
2019-06-20T17:42:47.649Z,15.18
2019-06-20T17:45:17.330Z,13.08
2019-06-20T17:47:46.944Z,15.45
2019-06-20T17:50:16.651Z,13.60
2019-06-20T17:52:46.295Z,16.35
2019-06-20T17:55:15.975Z,15.48
2019-06-20T17:57:45.321Z,13.08
2019-06-20T18:00:21.692Z,13.43
2019-06-20T18:02:51.039Z,13.70
2019-06-20T18:05:20.478Z,12.78
2019-06-20T18:07:49.813Z,13.40
2019-06-20T18:10:19.612Z,13.62
2019-06-20T18:12:49.191Z,12.93
2019-06-20T18:15:19.011Z,11.60
2019-06-20T18:17:48.377Z,13.32
2019-06-20T18:20:18.073Z,13.08
2019-06-20T18:22:47.688Z,13.85
2019-06-20T18:25:17.229Z,12.55
2019-06-20T18:27:46.543Z,14.35
2019-06-20T18:30:16.336Z,14.40
2019-06-20T18:32:45.678Z,13.00
2019-06-20T18:35:15.193Z,14.85
2019-06-20T18:37:44.758Z,13.72
2019-06-20T18:40:15.942Z,13.18
2019-06-20T18:42:45.579Z,13.35
2019-06-20T18:45:15.459Z,14.20
2019-06-20T18:47:44.807Z,17.48
2019-06-20T18:50:14.592Z,13.55
2019-06-20T18:52:52.103Z,14.63
2019-06-20T18:55:15.280Z,13.78
2019-06-20T18:57:44.632Z,15.18
2019-06-20T19:00:14.512Z,17.45
2019-06-20T19:02:43.921Z,14.60
2019-06-20T19:05:13.520Z,16.48
2019-06-20T19:07:42.889Z,15.40
2019-06-20T19:10:12.599Z,17.20
2019-06-20T19:12:41.939Z,16.50
2019-06-20T19:15:11.846Z,16.70
2019-06-20T19:17:41.171Z,16.93
2019-06-20T19:20:12.354Z,18.77
2019-06-20T19:22:41.728Z,17.32
2019-06-20T19:25:11.463Z,21.73
2019-06-20T19:27:46.773Z,21.27
2019-06-20T19:30:14.897Z,20.30
2019-06-20T19:32:44.319Z,17.02
2019-06-20T19:35:14.096Z,17.87
2019-06-20T19:37:43.723Z,17.92
2019-06-20T19:40:13.722Z,16.30
2019-06-20T19:42:43.293Z,21.15
2019-06-20T19:45:13.098Z,17.50
2019-06-20T19:47:42.868Z,18.30
2019-06-20T19:50:12.770Z,18.15
2019-06-20T19:52:42.127Z,19.02
2019-06-20T19:55:12.107Z,17.98
2019-06-20T19:57:41.446Z,17.90
2019-06-20T20:00:12.648Z,17.82
2019-06-20T20:02:42.141Z,20.70
2019-06-20T20:05:18.928Z,17.52
2019-06-20T20:07:42.758Z,18.40
2019-06-20T20:10:13.946Z,18.62
2019-06-20T20:12:43.567Z,18.02
2019-06-20T20:15:13.169Z,19.00
2019-06-20T20:17:42.507Z,20.52
2019-06-20T20:20:12.195Z,19.57
2019-06-20T20:22:41.780Z,21.42
2019-06-20T20:25:11.561Z,21.10
2019-06-20T20:27:41.207Z,21.77
2019-06-20T20:30:10.997Z,21.75
2019-06-20T20:32:40.599Z,23.40
2019-06-20T20:35:10.327Z,24.50
2019-06-20T20:37:39.664Z,25.23
2019-06-20T20:40:11.140Z,20.43
2019-06-20T20:42:40.479Z,20.08
2019-06-20T20:45:10.529Z,23.57
2019-06-20T20:47:39.860Z,27.27
2019-06-20T20:50:09.843Z,22.80
2019-06-20T20:52:39.389Z,25.12
2019-06-20T20:55:10.087Z,27.45
2019-06-20T20:57:39.625Z,24.02
2019-06-20T21:00:14.113Z,23.60
2019-06-20T21:02:43.795Z,21.77
2019-06-20T21:05:13.382Z,22.90
2019-06-20T21:07:42.982Z,25.45
2019-06-20T21:10:12.759Z,25.30
2019-06-20T21:12:42.375Z,23.65
2019-06-20T21:15:12.728Z,24.12
2019-06-20T21:17:42.122Z,25.92
2019-06-20T21:20:11.998Z,26.07
2019-06-20T21:22:41.834Z,24.75
2019-06-20T21:25:11.652Z,24.25
2019-06-20T21:27:41.297Z,24.05
2019-06-20T21:30:11.272Z,25.52
2019-06-20T21:32:40.624Z,24.63
2019-06-20T21:35:10.650Z,23.67
2019-06-20T21:37:39.981Z,22.45
2019-06-20T21:40:09.655Z,21.20
2019-06-20T21:42:39.064Z,19.52
2019-06-20T21:45:10.449Z,18.20
2019-06-20T21:47:39.875Z,18.77
2019-06-20T21:50:09.954Z,23.60
2019-06-20T21:52:39.599Z,19.98
2019-06-20T21:55:09.381Z,19.50
2019-06-20T21:57:38.723Z,19.52
2019-06-20T22:00:14.131Z,18.73
2019-06-20T22:02:45.134Z,17.48
2019-06-20T22:05:14.554Z,21.82
2019-06-20T22:07:43.900Z,19.30
2019-06-20T22:10:13.411Z,20.82
2019-06-20T22:12:42.925Z,21.60
2019-06-20T22:15:12.949Z,20.52
2019-06-20T22:17:42.298Z,20.68
2019-06-20T22:20:12.151Z,20.65
2019-06-20T22:22:41.935Z,19.32
2019-06-20T22:25:11.786Z,20.92
2019-06-20T22:27:42.402Z,18.20
2019-06-20T22:30:13.184Z,20.37
2019-06-20T22:32:42.669Z,18.50
2019-06-20T22:35:12.313Z,22.98
2019-06-20T22:37:41.956Z,19.07
2019-06-20T22:40:11.831Z,18.40
2019-06-20T22:42:41.189Z,22.27
2019-06-20T22:45:10.789Z,21.48
2019-06-20T22:47:40.160Z,20.95
2019-06-20T22:50:10.173Z,21.82
2019-06-20T22:52:39.504Z,23.18
2019-06-20T22:55:09.082Z,25.12
2019-06-20T22:57:38.443Z,21.52
2019-06-20T23:00:09.235Z,25.82
2019-06-20T23:02:38.964Z,21.85
2019-06-20T23:05:09.438Z,25.85
2019-06-20T23:07:39.020Z,21.60
2019-06-20T23:10:10.895Z,21.90
2019-06-20T23:12:40.570Z,22.93
2019-06-20T23:15:10.568Z,23.57
2019-06-20T23:17:39.980Z,20.15
2019-06-20T23:20:09.999Z,22.52
2019-06-20T23:22:39.573Z,23.18
2019-06-20T23:25:10.546Z,21.60
2019-06-20T23:27:39.884Z,22.50
2019-06-20T23:30:10.565Z,19.87
2019-06-20T23:32:40.065Z,19.32
2019-06-20T23:35:09.850Z,20.90
2019-06-20T23:37:39.457Z,19.07
2019-06-20T23:40:11.151Z,23.38
2019-06-20T23:42:40.585Z,20.37
2019-06-20T23:45:10.580Z,20.60
2019-06-20T23:47:39.969Z,22.82
2019-06-20T23:50:19.863Z,21.27
2019-06-20T23:53:04.020Z,19.60
2019-06-20T23:55:34.339Z,23.85
2019-06-20T23:58:03.887Z,22.22
